sensor_id;sensor_type;location;lat;lon;timestamp;pressure;altitude;pressure_sealevel;temperature
76476;BMP280;65308;50.078;14.854;2022-12-10T00:01:13;97919.06;;;3.99
76476;BMP280;65308;50.078;14.854;2022-12-10T00:03:41;97926.44;;;4.04
76476;BMP280;65308;50.078;14.854;2022-12-10T00:06:11;97932.41;;;4.08
76476;BMP280;65308;50.078;14.854;2022-12-10T00:08:39;97931.56;;;4.11
76476;BMP280;65308;50.078;14.854;2022-12-10T00:11:12;97937.19;;;4.13
76476;BMP280;65308;50.078;14.854;2022-12-10T00:13:40;97937.53;;;4.15
76476;BMP280;65308;50.078;14.854;2022-12-10T00:16:09;97941.63;;;4.16
76476;BMP280;65308;50.078;14.854;2022-12-10T00:18:36;97931.38;;;4.18
76476;BMP280;65308;50.078;14.854;2022-12-10T00:21:04;97941.63;;;4.16
76476;BMP280;65308;50.078;14.854;2022-12-10T00:23:33;97938.59;;;4.18
76476;BMP280;65308;50.078;14.854;2022-12-10T00:26:02;97939.66;;;4.20
76476;BMP280;65308;50.078;14.854;2022-12-10T00:28:29;97951.41;;;4.19
76476;BMP280;65308;50.078;14.854;2022-12-10T00:31:02;97946.53;;;4.18
76476;BMP280;65308;50.078;14.854;2022-12-10T00:33:29;97955.53;;;4.20
76476;BMP280;65308;50.078;14.854;2022-12-10T00:36:07;97951.72;;;4.21
76476;BMP280;65308;50.078;14.854;2022-12-10T00:38:38;97951.63;;;4.25
76476;BMP280;65308;50.078;14.854;2022-12-10T00:41:05;97960.72;;;4.24
76476;BMP280;65308;50.078;14.854;2022-12-10T00:43:32;97957.22;;;4.14
76476;BMP280;65308;50.078;14.854;2022-12-10T00:45:59;97961.19;;;4.06
76476;BMP280;65308;50.078;14.854;2022-12-10T00:48:25;97962.25;;;3.96
76476;BMP280;65308;50.078;14.854;2022-12-10T00:50:56;97964.19;;;3.79
76476;BMP280;65308;50.078;14.854;2022-12-10T00:53:23;97966.34;;;3.84
76476;BMP280;65308;50.078;14.854;2022-12-10T00:55:52;97960.31;;;3.83
76476;BMP280;65308;50.078;14.854;2022-12-10T00:58:19;97972.53;;;3.77
76476;BMP280;65308;50.078;14.854;2022-12-10T01:00:46;97968.72;;;3.78
76476;BMP280;65308;50.078;14.854;2022-12-10T01:03:14;97971.69;;;3.80
76476;BMP280;65308;50.078;14.854;2022-12-10T01:05:41;97967.59;;;3.79
76476;BMP280;65308;50.078;14.854;2022-12-10T01:08:08;97968.09;;;3.74
76476;BMP280;65308;50.078;14.854;2022-12-10T01:10:34;97970.72;;;3.74
76476;BMP280;65308;50.078;14.854;2022-12-10T01:13:03;97971.06;;;3.76
76476;BMP280;65308;50.078;14.854;2022-12-10T01:15:30;97964.09;;;3.82
76476;BMP280;65308;50.078;14.854;2022-12-10T01:17:57;97973.00;;;3.88
76476;BMP280;65308;50.078;14.854;2022-12-10T01:20:24;97964.22;;;3.91
76476;BMP280;65308;50.078;14.854;2022-12-10T01:22:51;97963.31;;;3.98
76476;BMP280;65308;50.078;14.854;2022-12-10T01:25:18;97961.19;;;4.06
76476;BMP280;65308;50.078;14.854;2022-12-10T01:27:47;97967.50;;;4.12
76476;BMP280;65308;50.078;14.854;2022-12-10T01:30:17;97963.00;;;4.09
76476;BMP280;65308;50.078;14.854;2022-12-10T01:32:44;97968.09;;;4.03
76476;BMP280;65308;50.078;14.854;2022-12-10T01:35:11;97963.06;;;3.93
76476;BMP280;65308;50.078;14.854;2022-12-10T01:37:37;97970.63;;;3.78
76476;BMP280;65308;50.078;14.854;2022-12-10T01:40:05;97971.41;;;3.62
76476;BMP280;65308;50.078;14.854;2022-12-10T01:42:32;97971.72;;;3.64
76476;BMP280;65308;50.078;14.854;2022-12-10T01:45:07;97977.03;;;3.64
76476;BMP280;65308;50.078;14.854;2022-12-10T01:47:36;97976.84;;;3.55
76476;BMP280;65308;50.078;14.854;2022-12-10T01:50:04;97967.03;;;3.55
76476;BMP280;65308;50.078;14.854;2022-12-10T01:52:31;97971.50;;;3.58
76476;BMP280;65308;50.078;14.854;2022-12-10T01:54:58;97975.16;;;3.48
76476;BMP280;65308;50.078;14.854;2022-12-10T01:57:26;97973.41;;;3.41
76476;BMP280;65308;50.078;14.854;2022-12-10T01:59:55;97978.88;;;3.34
76476;BMP280;65308;50.078;14.854;2022-12-10T02:02:40;97973.47;;;3.38
76476;BMP280;65308;50.078;14.854;2022-12-10T02:05:17;97966.38;;;3.51
76476;BMP280;65308;50.078;14.854;2022-12-10T02:07:55;97969.09;;;3.64
76476;BMP280;65308;50.078;14.854;2022-12-10T02:10:32;97962.03;;;3.74
76476;BMP280;65308;50.078;14.854;2022-12-10T02:13:07;97963.03;;;3.80
76476;BMP280;65308;50.078;14.854;2022-12-10T02:15:41;97959.06;;;3.72
76476;BMP280;65308;50.078;14.854;2022-12-10T02:18:13;97974.53;;;3.73
76476;BMP280;65308;50.078;14.854;2022-12-10T02:20:43;97971.69;;;3.80
76476;BMP280;65308;50.078;14.854;2022-12-10T02:23:14;97968.41;;;3.76
76476;BMP280;65308;50.078;14.854;2022-12-10T02:25:46;97973.84;;;3.85
76476;BMP280;65308;50.078;14.854;2022-12-10T02:28:19;97976.28;;;3.93
76476;BMP280;65308;50.078;14.854;2022-12-10T02:30:50;97983.31;;;3.99
76476;BMP280;65308;50.078;14.854;2022-12-10T02:33:18;97976.63;;;3.95
76476;BMP280;65308;50.078;14.854;2022-12-10T02:35:47;97972.38;;;3.84
76476;BMP280;65308;50.078;14.854;2022-12-10T02:38:18;97967.09;;;3.52
76476;BMP280;65308;50.078;14.854;2022-12-10T02:40:49;97979.78;;;3.60
76476;BMP280;65308;50.078;14.854;2022-12-10T02:43:16;97980.34;;;3.68
76476;BMP280;65308;50.078;14.854;2022-12-10T02:45:44;97988.50;;;3.74
76476;BMP280;65308;50.078;14.854;2022-12-10T02:48:13;97982.38;;;3.77
76476;BMP280;65308;50.078;14.854;2022-12-10T02:50:40;97983.88;;;3.78
76476;BMP280;65308;50.078;14.854;2022-12-10T02:53:07;97985.19;;;3.86
76476;BMP280;65308;50.078;14.854;2022-12-10T02:55:44;97979.78;;;3.89
76476;BMP280;65308;50.078;14.854;2022-12-10T02:58:18;97983.13;;;3.77
76476;BMP280;65308;50.078;14.854;2022-12-10T03:00:52;97980.66;;;3.86
76476;BMP280;65308;50.078;14.854;2022-12-10T03:03:34;97987.41;;;3.71
76476;BMP280;65308;50.078;14.854;2022-12-10T03:06:08;97989.19;;;3.61
76476;BMP280;65308;50.078;14.854;2022-12-10T03:08:41;97999.91;;;3.54
76476;BMP280;65308;50.078;14.854;2022-12-10T03:11:12;97997.91;;;3.45
76476;BMP280;65308;50.078;14.854;2022-12-10T03:13:48;98011.69;;;3.37
76476;BMP280;65308;50.078;14.854;2022-12-10T03:16:18;98014.66;;;3.22
76476;BMP280;65308;50.078;14.854;2022-12-10T03:18:49;98017.69;;;3.21
76476;BMP280;65308;50.078;14.854;2022-12-10T03:21:18;98012.41;;;3.21
76476;BMP280;65308;50.078;14.854;2022-12-10T03:23:45;98006.16;;;2.95
76476;BMP280;65308;50.078;14.854;2022-12-10T03:26:13;98010.44;;;3.09
76476;BMP280;65308;50.078;14.854;2022-12-10T03:28:43;98006.44;;;3.17
76476;BMP280;65308;50.078;14.854;2022-12-10T03:31:12;98008.63;;;3.22
76476;BMP280;65308;50.078;14.854;2022-12-10T03:33:41;98012.84;;;3.19
76476;BMP280;65308;50.078;14.854;2022-12-10T03:36:09;98011.41;;;3.15
76476;BMP280;65308;50.078;14.854;2022-12-10T03:38:37;98011.59;;;3.08
76476;BMP280;65308;50.078;14.854;2022-12-10T03:41:04;98022.00;;;3.15
76476;BMP280;65308;50.078;14.854;2022-12-10T03:43:32;98017.56;;;3.28
76476;BMP280;65308;50.078;14.854;2022-12-10T03:45:59;98012.03;;;3.39
76476;BMP280;65308;50.078;14.854;2022-12-10T03:48:25;98018.78;;;3.40
76476;BMP280;65308;50.078;14.854;2022-12-10T03:50:53;98013.34;;;3.47
76476;BMP280;65308;50.078;14.854;2022-12-10T03:53:21;98015.59;;;3.49
76476;BMP280;65308;50.078;14.854;2022-12-10T03:55:47;98004.47;;;3.54
76476;BMP280;65308;50.078;14.854;2022-12-10T03:58:14;98010.63;;;3.67
76476;BMP280;65308;50.078;14.854;2022-12-10T04:00:40;98013.41;;;3.76
76476;BMP280;65308;50.078;14.854;2022-12-10T04:03:07;98012.41;;;3.86
76476;BMP280;65308;50.078;14.854;2022-12-10T04:05:34;98012.94;;;3.94
76476;BMP280;65308;50.078;14.854;2022-12-10T04:08:01;98006.81;;;3.97
76476;BMP280;65308;50.078;14.854;2022-12-10T04:10:29;98003.03;;;3.98
76476;BMP280;65308;50.078;14.854;2022-12-10T04:12:55;98000.97;;;3.89
76476;BMP280;65308;50.078;14.854;2022-12-10T04:15:38;98009.66;;;3.74
76476;BMP280;65308;50.078;14.854;2022-12-10T04:18:22;97999.53;;;3.56
76476;BMP280;65308;50.078;14.854;2022-12-10T04:20:49;98000.94;;;3.44
76476;BMP280;65308;50.078;14.854;2022-12-10T04:23:33;98003.19;;;3.45
76476;BMP280;65308;50.078;14.854;2022-12-10T04:26:18;97997.91;;;3.29
76476;BMP280;65308;50.078;14.854;2022-12-10T04:29:03;97996.06;;;3.26
76476;BMP280;65308;50.078;14.854;2022-12-10T04:31:30;98002.56;;;3.21
76476;BMP280;65308;50.078;14.854;2022-12-10T04:33:56;97992.47;;;3.00
76476;BMP280;65308;50.078;14.854;2022-12-10T04:36:23;97988.00;;;2.97
76476;BMP280;65308;50.078;14.854;2022-12-10T04:38:50;97991.06;;;3.12
76476;BMP280;65308;50.078;14.854;2022-12-10T04:41:18;97994.56;;;3.25
76476;BMP280;65308;50.078;14.854;2022-12-10T04:43:44;97998.84;;;3.35
76476;BMP280;65308;50.078;14.854;2022-12-10T04:46:11;97998.22;;;3.47
76476;BMP280;65308;50.078;14.854;2022-12-10T04:48:37;98001.34;;;3.59
76476;BMP280;65308;50.078;14.854;2022-12-10T04:51:04;97994.81;;;3.63
76476;BMP280;65308;50.078;14.854;2022-12-10T04:53:31;97994.41;;;3.65
76476;BMP280;65308;50.078;14.854;2022-12-10T04:56:05;98002.00;;;3.63
76476;BMP280;65308;50.078;14.854;2022-12-10T04:58:34;98003.16;;;3.62
76476;BMP280;65308;50.078;14.854;2022-12-10T05:01:02;98001.81;;;3.70
76476;BMP280;65308;50.078;14.854;2022-12-10T05:03:28;97994.38;;;3.81
76476;BMP280;65308;50.078;14.854;2022-12-10T05:05:55;97983.16;;;3.90
76476;BMP280;65308;50.078;14.854;2022-12-10T05:08:22;97980.78;;;3.96
76476;BMP280;65308;50.078;14.854;2022-12-10T05:10:49;97986.16;;;3.92
76476;BMP280;65308;50.078;14.854;2022-12-10T05:13:15;97986.81;;;3.96
76476;BMP280;65308;50.078;14.854;2022-12-10T05:15:43;97981.78;;;3.85
76476;BMP280;65308;50.078;14.854;2022-12-10T05:18:10;97976.22;;;3.67
76476;BMP280;65308;50.078;14.854;2022-12-10T05:20:37;97976.78;;;3.58
76476;BMP280;65308;50.078;14.854;2022-12-10T05:23:04;97990.69;;;3.46
76476;BMP280;65308;50.078;14.854;2022-12-10T05:25:48;97992.66;;;3.26
76476;BMP280;65308;50.078;14.854;2022-12-10T05:28:19;97986.63;;;3.09
76476;BMP280;65308;50.078;14.854;2022-12-10T05:30:47;97991.66;;;3.03
76476;BMP280;65308;50.078;14.854;2022-12-10T05:33:14;97997.59;;;3.07
76476;BMP280;65308;50.078;14.854;2022-12-10T05:35:41;97996.00;;;3.10
76476;BMP280;65308;50.078;14.854;2022-12-10T05:38:08;97997.00;;;2.99
76476;BMP280;65308;50.078;14.854;2022-12-10T05:40:35;98002.34;;;2.79
76476;BMP280;65308;50.078;14.854;2022-12-10T05:43:02;98001.31;;;2.73
76476;BMP280;65308;50.078;14.854;2022-12-10T05:45:31;97995.50;;;2.82
76476;BMP280;65308;50.078;14.854;2022-12-10T05:47:59;97996.69;;;2.97
76476;BMP280;65308;50.078;14.854;2022-12-10T05:50:26;98003.22;;;3.09
76476;BMP280;65308;50.078;14.854;2022-12-10T05:52:53;97995.88;;;3.17
76476;BMP280;65308;50.078;14.854;2022-12-10T05:55:19;97998.44;;;3.20
76476;BMP280;65308;50.078;14.854;2022-12-10T05:57:46;98006.97;;;3.28
76476;BMP280;65308;50.078;14.854;2022-12-10T06:00:13;98004.47;;;3.21
76476;BMP280;65308;50.078;14.854;2022-12-10T06:02:40;98000.34;;;3.36
76476;BMP280;65308;50.078;14.854;2022-12-10T06:05:08;98004.75;;;3.43
76476;BMP280;65308;50.078;14.854;2022-12-10T06:07:35;98012.34;;;3.41
76476;BMP280;65308;50.078;14.854;2022-12-10T06:10:02;98018.28;;;3.45
76476;BMP280;65308;50.078;14.854;2022-12-10T06:12:28;98017.97;;;3.43
76476;BMP280;65308;50.078;14.854;2022-12-10T06:14:55;98025.56;;;3.24
76476;BMP280;65308;50.078;14.854;2022-12-10T06:17:21;98022.56;;;3.06
76476;BMP280;65308;50.078;14.854;2022-12-10T06:19:48;98033.97;;;2.83
76476;BMP280;65308;50.078;14.854;2022-12-10T06:22:16;98034.41;;;2.82
76476;BMP280;65308;50.078;14.854;2022-12-10T06:24:43;98041.56;;;2.81
76476;BMP280;65308;50.078;14.854;2022-12-10T06:27:09;98043.53;;;2.77
76476;BMP280;65308;50.078;14.854;2022-12-10T06:29:36;98038.72;;;2.92
76476;BMP280;65308;50.078;14.854;2022-12-10T06:32:03;98040.38;;;3.02
76476;BMP280;65308;50.078;14.854;2022-12-10T06:34:29;98043.41;;;3.20
76476;BMP280;65308;50.078;14.854;2022-12-10T06:36:56;98046.78;;;3.37
76476;BMP280;65308;50.078;14.854;2022-12-10T06:39:24;98048.16;;;3.45
76476;BMP280;65308;50.078;14.854;2022-12-10T06:41:51;98048.28;;;3.55
76476;BMP280;65308;50.078;14.854;2022-12-10T06:44:18;98057.97;;;3.61
76476;BMP280;65308;50.078;14.854;2022-12-10T06:46:44;98044.91;;;3.71
76476;BMP280;65308;50.078;14.854;2022-12-10T06:49:11;98048.38;;;3.84
76476;BMP280;65308;50.078;14.854;2022-12-10T06:51:38;98044.81;;;3.90
76476;BMP280;65308;50.078;14.854;2022-12-10T06:54:05;98033.28;;;3.97
76476;BMP280;65308;50.078;14.854;2022-12-10T06:56:33;98048.25;;;4.04
76476;BMP280;65308;50.078;14.854;2022-12-10T06:58:59;98035.53;;;3.99
76476;BMP280;65308;50.078;14.854;2022-12-10T07:01:29;98032.25;;;3.78
76476;BMP280;65308;50.078;14.854;2022-12-10T07:03:57;98041.41;;;3.74
76476;BMP280;65308;50.078;14.854;2022-12-10T07:06:24;98034.66;;;3.56
76476;BMP280;65308;50.078;14.854;2022-12-10T07:08:51;98038.97;;;3.66
76476;BMP280;65308;50.078;14.854;2022-12-10T07:11:19;98045.81;;;3.64
76476;BMP280;65308;50.078;14.854;2022-12-10T07:13:48;98043.25;;;3.60
76476;BMP280;65308;50.078;14.854;2022-12-10T07:16:18;98043.09;;;3.51
76476;BMP280;65308;50.078;14.854;2022-12-10T07:18:46;98048.31;;;3.38
76476;BMP280;65308;50.078;14.854;2022-12-10T07:21:14;98052.09;;;3.37
76476;BMP280;65308;50.078;14.854;2022-12-10T07:23:41;98062.78;;;3.50
76476;BMP280;65308;50.078;14.854;2022-12-10T07:26:08;98057.63;;;3.59
76476;BMP280;65308;50.078;14.854;2022-12-10T07:28:34;98058.56;;;3.53
76476;BMP280;65308;50.078;14.854;2022-12-10T07:31:03;98067.31;;;3.66
76476;BMP280;65308;50.078;14.854;2022-12-10T07:33:30;98069.78;;;3.73
76476;BMP280;65308;50.078;14.854;2022-12-10T07:35:58;98068.47;;;3.81
76476;BMP280;65308;50.078;14.854;2022-12-10T07:38:25;98070.94;;;3.88
76476;BMP280;65308;50.078;14.854;2022-12-10T07:40:51;98071.13;;;3.98
76476;BMP280;65308;50.078;14.854;2022-12-10T07:43:18;98066.56;;;3.98
76476;BMP280;65308;50.078;14.854;2022-12-10T07:45:45;98062.00;;;3.99
76476;BMP280;65308;50.078;14.854;2022-12-10T07:48:13;98062.88;;;4.08
76476;BMP280;65308;50.078;14.854;2022-12-10T07:50:40;98069.91;;;4.15
76476;BMP280;65308;50.078;14.854;2022-12-10T07:53:06;98082.75;;;4.17
76476;BMP280;65308;50.078;14.854;2022-12-10T07:55:33;98084.25;;;4.18
76476;BMP280;65308;50.078;14.854;2022-12-10T07:58:00;98083.41;;;4.21
76476;BMP280;65308;50.078;14.854;2022-12-10T08:00:26;98088.25;;;4.22
76476;BMP280;65308;50.078;14.854;2022-12-10T08:02:53;98088.78;;;4.17
76476;BMP280;65308;50.078;14.854;2022-12-10T08:05:21;98090.91;;;4.22
76476;BMP280;65308;50.078;14.854;2022-12-10T08:07:48;98091.25;;;4.24
76476;BMP280;65308;50.078;14.854;2022-12-10T08:10:15;98096.09;;;4.26
76476;BMP280;65308;50.078;14.854;2022-12-10T08:12:42;98104.31;;;4.31
76476;BMP280;65308;50.078;14.854;2022-12-10T08:15:09;98105.63;;;4.23
76476;BMP280;65308;50.078;14.854;2022-12-10T08:17:36;98110.72;;;4.18
76476;BMP280;65308;50.078;14.854;2022-12-10T08:20:03;98114.19;;;4.15
76476;BMP280;65308;50.078;14.854;2022-12-10T08:22:32;98117.66;;;4.11
76476;BMP280;65308;50.078;14.854;2022-12-10T08:25:00;98120.56;;;4.17
76476;BMP280;65308;50.078;14.854;2022-12-10T08:27:27;98120.00;;;4.09
76476;BMP280;65308;50.078;14.854;2022-12-10T08:29:54;98126.44;;;4.08
76476;BMP280;65308;50.078;14.854;2022-12-10T08:32:21;98128.09;;;4.19
76476;BMP280;65308;50.078;14.854;2022-12-10T08:34:47;98124.78;;;4.15
76476;BMP280;65308;50.078;14.854;2022-12-10T08:37:14;98124.94;;;4.07
76476;BMP280;65308;50.078;14.854;2022-12-10T08:39:42;98130.59;;;4.09
76476;BMP280;65308;50.078;14.854;2022-12-10T08:42:09;98128.84;;;4.19
76476;BMP280;65308;50.078;14.854;2022-12-10T08:44:36;98131.66;;;4.28
76476;BMP280;65308;50.078;14.854;2022-12-10T08:47:05;98129.81;;;4.25
76476;BMP280;65308;50.078;14.854;2022-12-10T08:49:32;98128.66;;;4.26
76476;BMP280;65308;50.078;14.854;2022-12-10T08:51:59;98124.94;;;4.24
76476;BMP280;65308;50.078;14.854;2022-12-10T08:54:26;98127.91;;;4.26
76476;BMP280;65308;50.078;14.854;2022-12-10T08:56:54;98130.22;;;4.24
76476;BMP280;65308;50.078;14.854;2022-12-10T08:59:21;98134.28;;;4.28
76476;BMP280;65308;50.078;14.854;2022-12-10T09:01:54;98120.28;;;4.28
76476;BMP280;65308;50.078;14.854;2022-12-10T09:04:21;98126.66;;;4.30
76476;BMP280;65308;50.078;14.854;2022-12-10T09:06:48;98127.16;;;4.25
76476;BMP280;65308;50.078;14.854;2022-12-10T09:09:15;98119.72;;;4.37
76476;BMP280;65308;50.078;14.854;2022-12-10T09:11:42;98122.34;;;4.37
76476;BMP280;65308;50.078;14.854;2022-12-10T09:14:12;98117.88;;;4.50
76476;BMP280;65308;50.078;14.854;2022-12-10T09:16:39;98105.56;;;4.56
76476;BMP280;65308;50.078;14.854;2022-12-10T09:19:06;98101.91;;;4.66
76476;BMP280;65308;50.078;14.854;2022-12-10T09:21:32;98101.28;;;4.75
76476;BMP280;65308;50.078;14.854;2022-12-10T09:23:59;98103.00;;;4.82
76476;BMP280;65308;50.078;14.854;2022-12-10T09:26:26;98106.28;;;4.86
76476;BMP280;65308;50.078;14.854;2022-12-10T09:28:53;98101.31;;;4.88
76476;BMP280;65308;50.078;14.854;2022-12-10T09:31:22;98106.72;;;4.97
76476;BMP280;65308;50.078;14.854;2022-12-10T09:33:52;98109.16;;;5.04
76476;BMP280;65308;50.078;14.854;2022-12-10T09:36:20;98107.50;;;5.10
76476;BMP280;65308;50.078;14.854;2022-12-10T09:38:48;98103.69;;;5.11
76476;BMP280;65308;50.078;14.854;2022-12-10T09:41:42;98103.22;;;5.13
76476;BMP280;65308;50.078;14.854;2022-12-10T09:44:23;98102.28;;;5.19
76476;BMP280;65308;50.078;14.854;2022-12-10T09:46:55;98101.53;;;5.32
76476;BMP280;65308;50.078;14.854;2022-12-10T09:49:30;98090.28;;;5.40
76476;BMP280;65308;50.078;14.854;2022-12-10T09:52:02;98098.56;;;5.55
76476;BMP280;65308;50.078;14.854;2022-12-10T09:54:31;98091.97;;;5.60
76476;BMP280;65308;50.078;14.854;2022-12-10T09:57:00;98103.28;;;5.86
76476;BMP280;65308;50.078;14.854;2022-12-10T09:59:30;98108.56;;;5.64
76476;BMP280;65308;50.078;14.854;2022-12-10T10:02:09;98103.00;;;5.58
76476;BMP280;65308;50.078;14.854;2022-12-10T10:04:39;98105.69;;;5.20
76476;BMP280;65308;50.078;14.854;2022-12-10T10:07:06;98098.47;;;5.33
76476;BMP280;65308;50.078;14.854;2022-12-10T10:09:40;98093.28;;;5.42
76476;BMP280;65308;50.078;14.854;2022-12-10T10:12:12;98084.69;;;5.38
76476;BMP280;65308;50.078;14.854;2022-12-10T10:14:41;98070.13;;;5.43
76476;BMP280;65308;50.078;14.854;2022-12-10T10:17:14;98066.84;;;5.39
76476;BMP280;65308;50.078;14.854;2022-12-10T10:19:46;98053.03;;;5.44
76476;BMP280;65308;50.078;14.854;2022-12-10T10:22:13;98061.22;;;5.50
76476;BMP280;65308;50.078;14.854;2022-12-10T10:24:42;98068.00;;;5.51
76476;BMP280;65308;50.078;14.854;2022-12-10T10:27:13;98078.78;;;5.56
76476;BMP280;65308;50.078;14.854;2022-12-10T10:29:41;98073.72;;;5.49
76476;BMP280;65308;50.078;14.854;2022-12-10T10:32:18;98065.06;;;5.36
76476;BMP280;65308;50.078;14.854;2022-12-10T10:34:47;98071.94;;;5.20
76476;BMP280;65308;50.078;14.854;2022-12-10T10:37:21;98070.97;;;4.89
76476;BMP280;65308;50.078;14.854;2022-12-10T10:39:49;98069.72;;;4.93
76476;BMP280;65308;50.078;14.854;2022-12-10T10:42:27;98071.19;;;4.94
76476;BMP280;65308;50.078;14.854;2022-12-10T10:44:54;98067.91;;;5.16
76476;BMP280;65308;50.078;14.854;2022-12-10T10:47:27;98066.63;;;5.20
76476;BMP280;65308;50.078;14.854;2022-12-10T10:49:55;98073.97;;;5.16
76476;BMP280;65308;50.078;14.854;2022-12-10T10:52:22;98071.53;;;5.22
76476;BMP280;65308;50.078;14.854;2022-12-10T10:54:53;98069.94;;;5.37
76476;BMP280;65308;50.078;14.854;2022-12-10T10:57:25;98078.84;;;5.31
76476;BMP280;65308;50.078;14.854;2022-12-10T10:59:55;98072.91;;;5.14
76476;BMP280;65308;50.078;14.854;2022-12-10T11:02:26;98076.72;;;5.00
76476;BMP280;65308;50.078;14.854;2022-12-10T11:04:56;98075.78;;;5.07
76476;BMP280;65308;50.078;14.854;2022-12-10T11:07:33;98079.81;;;5.24
76476;BMP280;65308;50.078;14.854;2022-12-10T11:10:17;98070.34;;;5.23
76476;BMP280;65308;50.078;14.854;2022-12-10T11:12:53;98080.84;;;5.26
76476;BMP280;65308;50.078;14.854;2022-12-10T11:15:34;98083.19;;;5.50
76476;BMP280;65308;50.078;14.854;2022-12-10T11:18:09;98078.28;;;5.48
76476;BMP280;65308;50.078;14.854;2022-12-10T11:20:57;98084.50;;;5.67
76476;BMP280;65308;50.078;14.854;2022-12-10T11:23:27;98077.88;;;5.50
76476;BMP280;65308;50.078;14.854;2022-12-10T11:26:09;98082.75;;;5.64
76476;BMP280;65308;50.078;14.854;2022-12-10T11:28:50;98085.06;;;5.62
76476;BMP280;65308;50.078;14.854;2022-12-10T11:31:32;98089.22;;;5.63
76476;BMP280;65308;50.078;14.854;2022-12-10T11:34:09;98077.16;;;5.50
76476;BMP280;65308;50.078;14.854;2022-12-10T11:36:50;98077.00;;;5.28
76476;BMP280;65308;50.078;14.854;2022-12-10T11:39:36;98066.72;;;5.04
76476;BMP280;65308;50.078;14.854;2022-12-10T11:42:11;98073.31;;;4.99
76476;BMP280;65308;50.078;14.854;2022-12-10T11:44:45;98071.09;;;5.11
76476;BMP280;65308;50.078;14.854;2022-12-10T11:47:35;98076.50;;;4.82
76476;BMP280;65308;50.078;14.854;2022-12-10T11:50:14;98077.91;;;4.57
76476;BMP280;65308;50.078;14.854;2022-12-10T11:53:02;98075.19;;;4.73
76476;BMP280;65308;50.078;14.854;2022-12-10T11:55:37;98066.50;;;4.86
76476;BMP280;65308;50.078;14.854;2022-12-10T12:00:49;98086.28;;;4.55
76476;BMP280;65308;50.078;14.854;2022-12-10T12:03:38;98084.41;;;4.40
76476;BMP280;65308;50.078;14.854;2022-12-10T12:06:24;98082.25;;;4.51
76476;BMP280;65308;50.078;14.854;2022-12-10T12:09:00;98080.16;;;4.71
76476;BMP280;65308;50.078;14.854;2022-12-10T12:11:50;98071.28;;;4.78
76476;BMP280;65308;50.078;14.854;2022-12-10T12:14:24;98074.53;;;5.11
76476;BMP280;65308;50.078;14.854;2022-12-10T12:17:00;98074.19;;;5.09
76476;BMP280;65308;50.078;14.854;2022-12-10T12:19:31;98059.31;;;5.24
76476;BMP280;65308;50.078;14.854;2022-12-10T12:22:06;98055.19;;;5.23
76476;BMP280;65308;50.078;14.854;2022-12-10T12:24:35;98051.38;;;5.37
76476;BMP280;65308;50.078;14.854;2022-12-10T12:27:09;98044.47;;;5.40
76476;BMP280;65308;50.078;14.854;2022-12-10T12:29:42;98052.63;;;5.33
76476;BMP280;65308;50.078;14.854;2022-12-10T12:32:17;98042.75;;;5.33
76476;BMP280;65308;50.078;14.854;2022-12-10T12:34:49;98040.13;;;5.33
76476;BMP280;65308;50.078;14.854;2022-12-10T12:37:22;98043.72;;;5.39
76476;BMP280;65308;50.078;14.854;2022-12-10T12:39:58;98042.31;;;5.35
76476;BMP280;65308;50.078;14.854;2022-12-10T12:42:30;98046.06;;;5.37
76476;BMP280;65308;50.078;14.854;2022-12-10T12:45:02;98047.72;;;5.44
76476;BMP280;65308;50.078;14.854;2022-12-10T12:47:34;98052.31;;;5.31
76476;BMP280;65308;50.078;14.854;2022-12-10T12:50:03;98054.75;;;5.38
76476;BMP280;65308;50.078;14.854;2022-12-10T12:52:39;98048.41;;;5.35
76476;BMP280;65308;50.078;14.854;2022-12-10T12:55:14;98043.72;;;5.26
76476;BMP280;65308;50.078;14.854;2022-12-10T12:57:46;98036.94;;;5.38
76476;BMP280;65308;50.078;14.854;2022-12-10T13:00:17;98038.53;;;5.23
76476;BMP280;65308;50.078;14.854;2022-12-10T13:03:00;98035.63;;;5.30
76476;BMP280;65308;50.078;14.854;2022-12-10T13:05:34;98044.34;;;5.31
76476;BMP280;65308;50.078;14.854;2022-12-10T13:11:18;98052.31;;;5.05
76476;BMP280;65308;50.078;14.854;2022-12-10T13:14:15;98058.16;;;5.00
76476;BMP280;65308;50.078;14.854;2022-12-10T13:16:49;98046.38;;;5.01
76476;BMP280;65308;50.078;14.854;2022-12-10T13:19:26;98053.41;;;4.95
76476;BMP280;65308;50.078;14.854;2022-12-10T13:21:59;98062.16;;;4.92
76476;BMP280;65308;50.078;14.854;2022-12-10T13:24:45;98065.81;;;4.98
76476;BMP280;65308;50.078;14.854;2022-12-10T13:27:19;98066.84;;;4.88
76476;BMP280;65308;50.078;14.854;2022-12-10T13:30:01;98065.94;;;4.65
76476;BMP280;65308;50.078;14.854;2022-12-10T13:32:44;98066.59;;;4.69
76476;BMP280;65308;50.078;14.854;2022-12-10T13:35:27;98071.19;;;4.82
76476;BMP280;65308;50.078;14.854;2022-12-10T13:37:57;98070.31;;;4.85
76476;BMP280;65308;50.078;14.854;2022-12-10T13:40:26;98069.31;;;4.95
76476;BMP280;65308;50.078;14.854;2022-12-10T13:43:20;98071.06;;;4.85
76476;BMP280;65308;50.078;14.854;2022-12-10T13:46:23;98079.00;;;4.85
76476;BMP280;65308;50.078;14.854;2022-12-10T13:48:57;98079.72;;;4.73
76476;BMP280;65308;50.078;14.854;2022-12-10T13:51:48;98087.69;;;4.73
76476;BMP280;65308;50.078;14.854;2022-12-10T13:54:43;98090.47;;;4.82
76476;BMP280;65308;50.078;14.854;2022-12-10T13:57:24;98090.91;;;4.80
76476;BMP280;65308;50.078;14.854;2022-12-10T14:00:01;98099.06;;;4.86
76476;BMP280;65308;50.078;14.854;2022-12-10T14:02:48;98079.44;;;4.84
76476;BMP280;65308;50.078;14.854;2022-12-10T14:05:26;98090.16;;;4.80
76476;BMP280;65308;50.078;14.854;2022-12-10T14:07:59;98089.94;;;4.74
76476;BMP280;65308;50.078;14.854;2022-12-10T14:10:31;98097.03;;;4.77
76476;BMP280;65308;50.078;14.854;2022-12-10T14:12:59;98104.03;;;4.71
76476;BMP280;65308;50.078;14.854;2022-12-10T14:15:28;98105.91;;;4.71
76476;BMP280;65308;50.078;14.854;2022-12-10T14:18:00;98112.19;;;4.77
76476;BMP280;65308;50.078;14.854;2022-12-10T14:20:29;98115.50;;;4.81
76476;BMP280;65308;50.078;14.854;2022-12-10T14:22:57;98121.50;;;4.69
76476;BMP280;65308;50.078;14.854;2022-12-10T14:25:43;98112.25;;;4.61
76476;BMP280;65308;50.078;14.854;2022-12-10T14:28:12;98118.56;;;4.67
76476;BMP280;65308;50.078;14.854;2022-12-10T14:30:43;98114.34;;;4.53
76476;BMP280;65308;50.078;14.854;2022-12-10T14:33:13;98123.25;;;4.59
76476;BMP280;65308;50.078;14.854;2022-12-10T14:35:41;98120.47;;;4.66